createdAt,value
2023-01-19T00:01:29.862Z,99617.22
2023-01-19T00:03:57.180Z,99609.41
2023-01-19T00:06:24.564Z,99610.69
2023-01-19T00:08:52.098Z,99614.59
2023-01-19T00:11:20.128Z,99617.09
2023-01-19T00:13:50.677Z,99612.56
2023-01-19T00:16:19.564Z,99626.66
2023-01-19T00:18:47.657Z,99625.41
2023-01-19T00:21:14.926Z,99624.19
2023-01-19T00:23:43.788Z,99626.88
2023-01-19T00:26:11.018Z,99628.81
2023-01-19T00:28:38.287Z,99622.56
2023-01-19T00:31:06.133Z,99628.59
2023-01-19T00:33:33.383Z,99623.13
2023-01-19T00:36:01.086Z,99619.06
2023-01-19T00:38:28.399Z,99635.00
2023-01-19T00:40:55.767Z,99624.66
2023-01-19T00:43:23.061Z,99626.06
2023-01-19T00:45:50.370Z,99633.28
2023-01-19T00:48:18.058Z,99632.63
2023-01-19T00:50:45.388Z,99634.09
2023-01-19T00:53:12.773Z,99629.72
2023-01-19T00:55:40.108Z,99633.28
2023-01-19T00:58:07.460Z,99629.81
2023-01-19T01:00:35.170Z,99636.66
2023-01-19T01:03:03.391Z,99636.28
2023-01-19T01:05:31.393Z,99644.38
2023-01-19T01:07:58.789Z,99632.66
2023-01-19T01:10:29.038Z,99639.03
2023-01-19T01:12:59.270Z,99644.94
2023-01-19T01:15:28.117Z,99642.25
2023-01-19T01:17:55.893Z,99647.94
2023-01-19T01:20:27.773Z,99642.06
2023-01-19T01:22:56.523Z,99648.59
2023-01-19T01:25:25.543Z,99646.16
2023-01-19T01:27:53.363Z,99646.84
2023-01-19T01:30:21.614Z,99642.59
2023-01-19T01:32:50.089Z,99636.78
2023-01-19T01:35:17.598Z,99637.94
2023-01-19T01:37:45.353Z,99640.19
2023-01-19T01:40:15.688Z,99638.25
2023-01-19T01:42:44.087Z,99641.88
2023-01-19T01:45:38.340Z,99631.66
2023-01-19T01:48:11.747Z,99634.06
2023-01-19T01:51:04.804Z,99640.91
2023-01-19T01:53:34.850Z,99634.06
2023-01-19T01:56:07.375Z,99645.31
2023-01-19T01:58:36.000Z,99650.16
2023-01-19T02:01:37.610Z,99645.16
2023-01-19T02:04:05.205Z,99640.47
2023-01-19T02:06:32.665Z,99639.13
2023-01-19T02:09:27.337Z,99631.94
2023-01-19T02:12:14.113Z,99629.72
2023-01-19T02:14:41.430Z,99622.53
2023-01-19T02:17:09.139Z,99629.59
2023-01-19T02:19:42.085Z,99629.06
2023-01-19T02:22:20.640Z,99639.31
2023-01-19T02:24:49.828Z,99633.59
2023-01-19T02:27:17.640Z,99645.00
2023-01-19T02:29:45.161Z,99641.97
2023-01-19T02:32:12.841Z,99634.25
2023-01-19T02:34:40.749Z,99642.31
2023-01-19T02:37:12.200Z,99631.41
2023-01-19T02:39:48.352Z,99626.38
2023-01-19T02:42:24.016Z,99631.56
2023-01-19T02:44:54.516Z,99638.41
2023-01-19T02:47:23.052Z,99643.22
2023-01-19T02:49:58.552Z,99632.88
2023-01-19T02:52:26.807Z,99641.84
2023-01-19T02:55:19.856Z,99644.84
2023-01-19T02:58:01.601Z,99637.91
2023-01-19T03:00:44.705Z,99634.16
2023-01-19T03:03:30.800Z,99634.81
2023-01-19T03:06:06.841Z,99634.81
2023-01-19T03:08:56.018Z,99623.94
2023-01-19T03:11:29.519Z,99629.00
2023-01-19T03:14:02.934Z,99631.81
2023-01-19T03:16:44.114Z,99624.91
2023-01-19T03:19:27.304Z,99628.63
2023-01-19T03:22:00.337Z,99623.59
2023-01-19T03:24:31.680Z,99619.91
2023-01-19T03:27:04.062Z,99617.75
2023-01-19T03:29:34.839Z,99623.91
2023-01-19T03:32:09.271Z,99619.91
2023-01-19T03:34:39.406Z,99618.91
2023-01-19T03:37:08.529Z,99623.59
2023-01-19T03:39:36.134Z,99613.56
2023-01-19T03:42:08.339Z,99617.59
2023-01-19T03:44:38.420Z,99613.22
2023-01-19T03:47:07.422Z,99608.25
2023-01-19T03:49:36.278Z,99608.56
2023-01-19T03:52:04.169Z,99604.09
2023-01-19T03:54:32.153Z,99605.94
2023-01-19T03:56:59.546Z,99611.59
2023-01-19T03:59:26.912Z,99609.91
2023-01-19T04:01:54.253Z,99615.97
2023-01-19T04:04:21.631Z,99618.69
2023-01-19T04:06:49.389Z,99616.81
2023-01-19T04:09:19.189Z,99609.31
2023-01-19T04:11:46.540Z,99617.66
2023-01-19T04:14:13.832Z,99623.50
2023-01-19T04:16:41.092Z,99619.69
2023-01-19T04:19:08.398Z,99619.84
2023-01-19T04:21:35.949Z,99616.16
2023-01-19T04:24:04.333Z,99613.31
2023-01-19T04:26:31.688Z,99623.53
2023-01-19T04:28:59.103Z,99616.16
2023-01-19T04:31:26.499Z,99616.69
2023-01-19T04:33:55.870Z,99615.00
2023-01-19T04:36:23.088Z,99619.81
2023-01-19T04:38:50.385Z,99619.53
2023-01-19T04:41:18.594Z,99621.88
2023-01-19T04:43:47.660Z,99623.66
2023-01-19T04:46:15.293Z,99623.00
2023-01-19T04:48:43.128Z,99630.66
2023-01-19T04:51:10.509Z,99634.66
2023-01-19T04:53:37.787Z,99643.66
2023-01-19T04:56:06.007Z,99635.84
2023-01-19T04:58:33.263Z,99633.22
2023-01-19T05:01:00.707Z,99647.06
2023-01-19T05:03:27.985Z,99647.47
2023-01-19T05:05:55.561Z,99642.78
2023-01-19T05:08:23.088Z,99651.81
2023-01-19T05:10:50.560Z,99654.31
2023-01-19T05:13:17.882Z,99654.66
2023-01-19T05:15:45.171Z,99658.00
2023-01-19T05:18:13.067Z,99651.97
2023-01-19T05:20:41.280Z,99661.53
2023-01-19T05:23:08.612Z,99671.16
2023-01-19T05:25:36.043Z,99665.16
2023-01-19T05:28:03.990Z,99665.47
2023-01-19T05:30:31.645Z,99664.28
2023-01-19T05:32:59.388Z,99668.41
2023-01-19T05:35:35.554Z,99669.75
2023-01-19T05:38:04.145Z,99676.50
2023-01-19T05:40:31.424Z,99681.41
2023-01-19T05:43:02.005Z,99684.22
2023-01-19T05:45:30.050Z,99681.88
2023-01-19T05:47:57.432Z,99688.25
2023-01-19T05:50:25.333Z,99694.63
2023-01-19T05:52:55.642Z,99698.06
2023-01-19T05:55:22.949Z,99695.66
2023-01-19T05:57:50.222Z,99703.56
2023-01-19T06:00:18.075Z,99708.44
2023-01-19T06:02:49.337Z,99697.91
2023-01-19T06:05:17.252Z,99706.09
2023-01-19T06:07:44.605Z,99708.50
2023-01-19T06:10:12.174Z,99709.09
2023-01-19T06:12:41.545Z,99706.31
2023-01-19T06:15:09.278Z,99713.84
2023-01-19T06:17:36.982Z,99707.34
2023-01-19T06:20:05.360Z,99712.84
2023-01-19T06:22:32.939Z,99725.94
2023-01-19T06:25:00.399Z,99726.47
2023-01-19T06:27:27.956Z,99724.28
2023-01-19T06:29:55.666Z,99723.28
2023-01-19T06:32:23.006Z,99741.91
2023-01-19T06:34:53.266Z,99736.38
2023-01-19T06:37:21.410Z,99743.06
2023-01-19T06:39:48.682Z,99745.56
2023-01-19T06:42:16.407Z,99742.53
2023-01-19T06:44:47.445Z,99746.59
2023-01-19T06:47:17.723Z,99755.81
2023-01-19T06:49:45.423Z,99752.13
2023-01-19T06:52:15.943Z,99761.00
2023-01-19T06:54:45.454Z,99757.66
2023-01-19T06:57:13.918Z,99749.94
2023-01-19T06:59:41.350Z,99770.06
2023-01-19T07:02:26.293Z,99762.84
2023-01-19T07:04:56.702Z,99772.75
2023-01-19T07:07:24.066Z,99779.75
2023-01-19T07:09:54.021Z,99792.19
2023-01-19T07:12:22.493Z,99791.34
2023-01-19T07:14:50.447Z,99799.56
2023-01-19T07:17:17.785Z,99802.41
2023-01-19T07:19:46.276Z,99804.25
2023-01-19T07:22:13.729Z,99796.72
2023-01-19T07:24:41.626Z,99798.56
2023-01-19T07:27:11.535Z,99803.97
2023-01-19T07:29:39.345Z,99808.81
2023-01-19T07:32:07.564Z,99821.22
2023-01-19T07:34:35.986Z,99829.94
2023-01-19T07:37:04.487Z,99833.78
2023-01-19T07:39:32.082Z,99843.31
2023-01-19T07:41:59.783Z,99835.16
2023-01-19T07:44:27.228Z,99837.50
2023-01-19T07:46:54.486Z,99843.19
2023-01-19T07:49:21.755Z,99855.91
2023-01-19T07:51:49.606Z,99864.06
2023-01-19T07:54:16.929Z,99867.38
2023-01-19T07:56:44.194Z,99873.75
2023-01-19T07:59:12.106Z,99875.19
2023-01-19T08:01:40.930Z,99875.13
2023-01-19T08:04:08.354Z,99882.06
2023-01-19T08:06:39.021Z,99882.56
2023-01-19T08:09:07.213Z,99889.94
2023-01-19T08:11:34.556Z,99890.34
2023-01-19T08:14:02.509Z,99899.81
2023-01-19T08:16:30.322Z,99911.72
2023-01-19T08:18:57.606Z,99912.81
2023-01-19T08:21:24.955Z,99914.59
2023-01-19T08:23:56.470Z,99921.00
2023-01-19T08:26:28.122Z,99931.31
2023-01-19T08:28:58.089Z,99926.75
2023-01-19T08:31:26.906Z,99937.06
2023-01-19T08:33:55.039Z,99948.47
2023-01-19T08:36:23.008Z,99942.34
2023-01-19T08:38:50.488Z,99949.25
2023-01-19T08:41:18.210Z,99947.38
2023-01-19T08:43:45.661Z,99958.38
2023-01-19T08:46:17.578Z,99966.00
2023-01-19T08:48:45.508Z,99962.44
2023-01-19T08:51:12.805Z,99966.84
2023-01-19T08:53:41.521Z,99964.00
2023-01-19T08:56:13.913Z,99973.75
2023-01-19T08:58:43.459Z,99976.53
2023-01-19T09:01:14.655Z,99989.84
2023-01-19T09:03:42.929Z,99988.97
2023-01-19T09:06:13.111Z,99990.47
2023-01-19T09:08:40.680Z,100003.78
2023-01-19T09:11:13.066Z,99999.94
2023-01-19T09:13:41.436Z,100001.13
2023-01-19T09:16:12.696Z,100000.94
2023-01-19T09:18:40.087Z,100010.19
2023-01-19T09:21:08.244Z,100011.47
2023-01-19T09:23:35.713Z,100010.47
2023-01-19T09:26:05.550Z,100024.56
2023-01-19T09:28:34.044Z,100029.59
2023-01-19T09:31:09.155Z,100026.03
2023-01-19T09:33:36.583Z,100034.53
2023-01-19T09:36:04.047Z,100035.22
2023-01-19T09:38:33.001Z,100036.91
2023-01-19T09:41:01.098Z,100037.44
2023-01-19T09:43:43.393Z,100034.91
2023-01-19T09:46:22.785Z,100041.75
2023-01-19T09:48:54.006Z,100047.34
2023-01-19T09:51:28.945Z,100051.78
2023-01-19T09:54:20.755Z,100058.53
2023-01-19T09:56:52.356Z,100054.25
2023-01-19T09:59:31.625Z,100062.16
2023-01-19T10:02:28.002Z,100064.72
2023-01-19T10:05:22.296Z,100060.19
2023-01-19T10:08:20.220Z,100061.50
2023-01-19T10:10:53.368Z,100065.94
2023-01-19T10:13:29.692Z,100065.00
2023-01-19T10:16:14.572Z,100069.94
2023-01-19T10:18:48.185Z,100073.09
2023-01-19T10:21:26.433Z,100085.47
2023-01-19T10:24:25.804Z,100067.72
2023-01-19T10:26:56.276Z,100076.38
2023-01-19T10:29:37.293Z,100080.88
2023-01-19T10:32:19.881Z,100079.13
2023-01-19T10:34:49.219Z,100077.69
2023-01-19T10:37:29.428Z,100081.19
2023-01-19T10:40:25.475Z,100082.41
2023-01-19T10:42:53.196Z,100085.16
2023-01-19T10:45:25.883Z,100077.69
2023-01-19T10:47:54.705Z,100079.09
2023-01-19T10:50:24.303Z,100079.72
2023-01-19T10:52:54.145Z,100082.84
2023-01-19T10:55:30.521Z,100082.13
2023-01-19T10:57:59.305Z,100085.22
2023-01-19T11:00:30.329Z,100089.16
2023-01-19T11:02:57.846Z,100089.09
2023-01-19T11:05:30.365Z,100097.25
2023-01-19T11:07:58.612Z,100088.69
2023-01-19T11:10:28.423Z,100084.56
2023-01-19T11:12:57.496Z,100091.63
2023-01-19T11:15:27.521Z,100083.75
2023-01-19T11:17:55.249Z,100085.66
2023-01-19T11:20:24.650Z,100085.81
2023-01-19T11:23:19.792Z,100093.50
2023-01-19T11:25:49.232Z,100094.19
2023-01-19T11:28:30.149Z,100096.75
2023-01-19T11:31:00.998Z,100098.91
2023-01-19T11:33:36.090Z,100097.31
2023-01-19T11:36:07.447Z,100107.59
2023-01-19T11:38:43.527Z,100096.31
2023-01-19T11:41:21.989Z,100104.16
2023-01-19T11:43:54.032Z,100103.41
2023-01-19T11:46:23.627Z,100105.41
2023-01-19T11:49:22.117Z,100100.94
2023-01-19T11:52:18.451Z,100103.34
2023-01-19T11:54:54.872Z,100097.97
2023-01-19T11:57:22.692Z,100099.28
2023-01-19T11:59:52.813Z,100100.03
2023-01-19T12:02:30.404Z,100103.50
2023-01-19T12:05:07.341Z,100098.50
2023-01-19T12:07:37.492Z,100095.66
2023-01-19T12:10:31.536Z,100105.50
2023-01-19T12:13:00.384Z,100102.50
2023-01-19T12:15:31.480Z,100096.38
2023-01-19T12:18:02.199Z,100094.50
2023-01-19T12:20:38.998Z,100097.22
2023-01-19T12:23:25.138Z,100095.75
2023-01-19T12:26:29.487Z,100088.19
2023-01-19T12:29:04.164Z,100090.88
2023-01-19T12:31:31.785Z,100093.22
2023-01-19T12:34:25.060Z,100100.09
2023-01-19T12:36:55.468Z,100096.91
2023-01-19T12:39:25.141Z,100101.59
2023-01-19T12:42:14.827Z,100101.63
2023-01-19T12:44:44.105Z,100098.59
2023-01-19T12:47:13.005Z,100101.31
2023-01-19T12:49:53.075Z,100103.84
2023-01-19T12:52:34.563Z,100105.41
2023-01-19T12:55:14.322Z,100104.78
2023-01-19T12:57:48.115Z,100107.25
2023-01-19T13:00:37.278Z,100107.81
2023-01-19T13:03:17.789Z,100101.28
2023-01-19T13:05:48.878Z,100106.84
2023-01-19T13:08:19.349Z,100111.75
2023-01-19T13:10:59.345Z,100105.22
2023-01-19T13:13:32.829Z,100106.78
2023-01-19T13:16:20.301Z,100118.34
2023-01-19T13:18:53.446Z,100123.31
2023-01-19T13:21:30.369Z,100121.25
2023-01-19T13:24:19.303Z,100123.69
2023-01-19T13:26:49.735Z,100124.53
2023-01-19T13:29:34.519Z,100122.00
2023-01-19T13:32:05.650Z,100127.34
2023-01-19T13:34:40.540Z,100125.25
2023-01-19T13:37:18.160Z,100134.56
2023-01-19T13:39:50.131Z,100129.53
2023-01-19T13:42:37.744Z,100136.31
2023-01-19T13:45:24.753Z,100134.28
2023-01-19T13:47:52.925Z,100143.31
2023-01-19T13:50:23.436Z,100141.41
2023-01-19T13:52:53.801Z,100144.38
2023-01-19T13:55:22.880Z,100144.00
2023-01-19T13:57:53.892Z,100146.84
2023-01-19T14:00:24.514Z,100150.19
2023-01-19T14:02:57.066Z,100152.28
2023-01-19T14:05:42.415Z,100152.47
2023-01-19T14:08:13.160Z,100150.16
2023-01-19T14:10:47.505Z,100153.31
2023-01-19T14:13:20.062Z,100157.19
2023-01-19T14:15:49.258Z,100159.78
2023-01-19T14:18:16.677Z,100168.75
2023-01-19T14:21:14.444Z,100163.31
2023-01-19T14:23:50.999Z,100163.75
2023-01-19T14:26:41.677Z,100166.84
2023-01-19T14:29:15.434Z,100172.78
2023-01-19T14:31:45.064Z,100162.38
2023-01-19T14:34:43.796Z,100166.66
2023-01-19T14:37:47.085Z,100164.53
2023-01-19T14:40:20.405Z,100172.34
2023-01-19T14:42:53.845Z,100163.56
2023-01-19T14:45:23.344Z,100161.84
2023-01-19T14:48:05.338Z,100167.44
2023-01-19T14:50:36.628Z,100174.09
2023-01-19T14:53:07.067Z,100176.16
2023-01-19T14:55:50.830Z,100177.00
2023-01-19T14:58:20.099Z,100177.13
2023-01-19T15:00:49.130Z,100177.66
2023-01-19T15:03:17.044Z,100178.59
2023-01-19T15:05:46.869Z,100177.69
2023-01-19T15:08:22.997Z,100190.63
2023-01-19T15:10:51.171Z,100192.56
2023-01-19T15:13:23.805Z,100200.22
2023-01-19T15:15:51.785Z,100194.19
2023-01-19T15:18:26.772Z,100194.47
2023-01-19T15:21:02.712Z,100195.16
2023-01-19T15:23:31.123Z,100192.94
2023-01-19T15:26:01.372Z,100195.47
2023-01-19T15:28:29.772Z,100195.25
2023-01-19T15:30:59.210Z,100191.16
2023-01-19T15:33:32.997Z,100195.50
2023-01-19T15:36:00.312Z,100201.28
2023-01-19T15:38:28.111Z,100199.84
2023-01-19T15:40:55.779Z,100208.22
2023-01-19T15:43:23.067Z,100207.38
2023-01-19T15:46:01.902Z,100213.78
2023-01-19T15:48:29.559Z,100216.66
2023-01-19T15:50:57.378Z,100218.94
2023-01-19T15:53:27.179Z,100218.91
2023-01-19T15:55:56.774Z,100226.88
2023-01-19T15:58:25.018Z,100221.31
2023-01-19T16:00:58.208Z,100225.38
2023-01-19T16:03:26.601Z,100226.84
2023-01-19T16:05:53.891Z,100230.72
2023-01-19T16:08:22.052Z,100226.19
2023-01-19T16:10:49.877Z,100234.38
2023-01-19T16:13:17.193Z,100238.00
2023-01-19T16:15:44.467Z,100237.66
2023-01-19T16:18:12.216Z,100233.81
2023-01-19T16:20:39.542Z,100238.69
2023-01-19T16:23:14.977Z,100237.94
2023-01-19T16:25:42.972Z,100244.81
2023-01-19T16:28:10.285Z,100244.63
2023-01-19T16:30:37.623Z,100244.19
2023-01-19T16:33:05.516Z,100250.09
2023-01-19T16:35:32.798Z,100257.22
2023-01-19T16:38:00.173Z,100259.75
2023-01-19T16:40:27.486Z,100258.13
2023-01-19T16:42:54.819Z,100266.38
2023-01-19T16:45:22.660Z,100268.75
2023-01-19T16:47:52.180Z,100271.16
2023-01-19T16:50:19.889Z,100266.28
2023-01-19T16:52:47.849Z,100268.41
2023-01-19T16:55:15.147Z,100269.31
2023-01-19T16:57:42.981Z,100270.38
2023-01-19T17:00:11.451Z,100268.31
2023-01-19T17:02:39.766Z,100278.22
2023-01-19T17:05:07.575Z,100270.38
2023-01-19T17:07:34.941Z,100275.09
2023-01-19T17:10:02.295Z,100275.53
2023-01-19T17:12:32.154Z,100280.16
2023-01-19T17:14:59.700Z,100277.75
2023-01-19T17:17:27.058Z,100278.56
2023-01-19T17:19:54.345Z,100279.16
2023-01-19T17:22:21.745Z,100281.84
2023-01-19T17:24:49.864Z,100282.13
2023-01-19T17:27:17.311Z,100281.34
2023-01-19T17:29:44.548Z,100283.84
2023-01-19T17:32:12.390Z,100286.06
2023-01-19T17:34:39.720Z,100290.47
2023-01-19T17:37:07.612Z,100292.38
2023-01-19T17:39:35.309Z,100286.25
2023-01-19T17:42:03.864Z,100285.63
2023-01-19T17:44:31.250Z,100285.69
2023-01-19T17:46:59.940Z,100288.28
2023-01-19T17:49:30.493Z,100285.53
2023-01-19T17:51:58.263Z,100287.00
2023-01-19T17:54:25.661Z,100290.25
2023-01-19T17:56:53.382Z,100292.47
2023-01-19T17:59:20.677Z,100295.63
2023-01-19T18:01:48.398Z,100288.03
2023-01-19T18:04:16.296Z,100306.59
2023-01-19T18:06:45.038Z,100303.28
2023-01-19T18:09:12.454Z,100301.91
2023-01-19T18:11:39.766Z,100305.25
2023-01-19T18:14:07.486Z,100302.03
2023-01-19T18:16:35.885Z,100305.19
2023-01-19T18:19:03.617Z,100307.06
2023-01-19T18:21:30.966Z,100299.97
2023-01-19T18:24:01.359Z,100302.66
2023-01-19T18:26:30.162Z,100305.91
2023-01-19T18:28:58.421Z,100306.91
2023-01-19T18:31:26.724Z,100307.88
2023-01-19T18:33:54.168Z,100308.03
2023-01-19T18:36:21.932Z,100305.34
2023-01-19T18:38:50.024Z,100302.69
2023-01-19T18:41:19.672Z,100301.41
2023-01-19T18:43:47.609Z,100306.00
2023-01-19T18:46:16.155Z,100303.03
2023-01-19T18:48:43.928Z,100307.28
2023-01-19T18:51:14.613Z,100296.53
2023-01-19T18:53:43.040Z,100307.56
2023-01-19T18:56:15.541Z,100297.84
2023-01-19T18:58:44.039Z,100304.53
2023-01-19T19:01:23.041Z,100306.91
2023-01-19T19:03:51.891Z,100304.94
2023-01-19T19:06:20.906Z,100307.91
2023-01-19T19:08:52.047Z,100306.47
2023-01-19T19:11:20.726Z,100305.06
2023-01-19T19:13:53.729Z,100300.66
2023-01-19T19:16:21.264Z,100302.53
2023-01-19T19:18:51.992Z,100306.59
2023-01-19T19:21:21.870Z,100295.72
2023-01-19T19:23:51.889Z,100297.28
2023-01-19T19:26:19.734Z,100294.47
2023-01-19T19:28:47.395Z,100292.19
2023-01-19T19:31:20.513Z,100296.78
2023-01-19T19:33:50.814Z,100295.06
2023-01-19T19:36:20.214Z,100290.84
2023-01-19T19:38:48.817Z,100288.72
2023-01-19T19:41:22.790Z,100285.22
2023-01-19T19:43:50.746Z,100295.16
2023-01-19T19:46:20.166Z,100289.28
2023-01-19T19:48:48.863Z,100285.06
2023-01-19T19:51:19.074Z,100290.69
2023-01-19T19:53:49.555Z,100291.00
2023-01-19T19:56:21.100Z,100290.28
2023-01-19T19:58:50.273Z,100292.50
2023-01-19T20:01:20.912Z,100299.22
2023-01-19T20:03:48.919Z,100299.53
2023-01-19T20:06:20.718Z,100296.16
2023-01-19T20:08:48.873Z,100301.06
2023-01-19T20:11:19.188Z,100302.38
2023-01-19T20:13:47.679Z,100301.34
2023-01-19T20:16:17.691Z,100299.50
2023-01-19T20:18:54.281Z,100301.56
2023-01-19T20:21:28.680Z,100306.09
2023-01-19T20:24:01.047Z,100296.34
2023-01-19T20:26:32.182Z,100298.56
2023-01-19T20:29:08.204Z,100301.78
2023-01-19T20:31:41.946Z,100300.13
2023-01-19T20:34:12.025Z,100304.44
2023-01-19T20:36:41.178Z,100307.03
2023-01-19T20:39:10.900Z,100316.78
2023-01-19T20:41:43.603Z,100317.88
2023-01-19T20:44:17.094Z,100314.84
2023-01-19T20:46:44.968Z,100318.91
2023-01-19T20:49:12.759Z,100324.44
2023-01-19T20:51:46.060Z,100333.50
2023-01-19T20:54:15.696Z,100338.25
2023-01-19T20:56:43.032Z,100339.00
2023-01-19T20:59:11.018Z,100341.06
2023-01-19T21:01:39.381Z,100338.22
2023-01-19T21:04:07.657Z,100338.19
2023-01-19T21:06:35.291Z,100332.81
2023-01-19T21:09:03.066Z,100337.44
2023-01-19T21:11:30.779Z,100339.22
2023-01-19T21:13:58.230Z,100341.59
2023-01-19T21:16:28.984Z,100335.56
2023-01-19T21:18:56.352Z,100332.03
2023-01-19T21:21:30.687Z,100326.56
2023-01-19T21:24:02.504Z,100331.97
2023-01-19T21:26:31.430Z,100330.41
2023-01-19T21:29:00.646Z,100335.19
2023-01-19T21:31:28.761Z,100335.41
2023-01-19T21:33:57.591Z,100336.84
2023-01-19T21:36:25.513Z,100329.03
2023-01-19T21:38:55.574Z,100327.47
2023-01-19T21:41:23.133Z,100328.59
2023-01-19T21:43:50.359Z,100337.22
2023-01-19T21:46:21.358Z,100326.78
2023-01-19T21:48:48.706Z,100335.25
2023-01-19T21:51:16.269Z,100335.09
2023-01-19T21:53:43.685Z,100330.19
2023-01-19T21:56:11.742Z,100340.69
2023-01-19T21:58:39.072Z,100344.53
2023-01-19T22:01:13.721Z,100353.81
2023-01-19T22:03:42.901Z,100353.50
2023-01-19T22:06:13.789Z,100353.66
2023-01-19T22:08:41.468Z,100357.69
2023-01-19T22:11:11.451Z,100354.50
2023-01-19T22:13:39.083Z,100359.38
2023-01-19T22:16:10.557Z,100357.00
2023-01-19T22:18:40.903Z,100357.03
2023-01-19T22:21:19.504Z,100363.75
2023-01-19T22:23:52.320Z,100370.94
2023-01-19T22:26:20.179Z,100377.31
2023-01-19T22:28:47.792Z,100376.00
2023-01-19T22:31:17.814Z,100379.28
2023-01-19T22:33:45.619Z,100383.75
2023-01-19T22:36:19.641Z,100383.59
2023-01-19T22:38:52.259Z,100375.91
2023-01-19T22:41:23.961Z,100381.13
2023-01-19T22:43:54.783Z,100370.81
2023-01-19T22:46:24.990Z,100365.47
2023-01-19T22:48:54.039Z,100367.69
2023-01-19T22:51:22.352Z,100367.22
2023-01-19T22:53:50.393Z,100369.44
2023-01-19T22:56:19.886Z,100372.34
2023-01-19T22:58:47.835Z,100370.44
2023-01-19T23:01:38.297Z,100376.25
2023-01-19T23:04:06.634Z,100379.34
2023-01-19T23:06:36.159Z,100370.31
2023-01-19T23:09:06.638Z,100376.22
2023-01-19T23:11:40.171Z,100368.34
2023-01-19T23:14:10.258Z,100380.34
2023-01-19T23:16:38.152Z,100376.94
2023-01-19T23:19:05.767Z,100382.16
2023-01-19T23:21:33.931Z,100383.38
2023-01-19T23:24:03.321Z,100392.38
2023-01-19T23:26:37.985Z,100395.53
2023-01-19T23:29:15.403Z,100412.34
2023-01-19T23:31:45.907Z,100407.44
2023-01-19T23:34:14.288Z,100407.88
2023-01-19T23:36:42.904Z,100401.69
2023-01-19T23:39:19.732Z,100406.56
2023-01-19T23:41:47.683Z,100413.81
2023-01-19T23:44:17.111Z,100417.63
2023-01-19T23:46:45.079Z,100412.88
2023-01-19T23:49:13.327Z,100417.31
2023-01-19T23:51:41.859Z,100418.22
2023-01-19T23:54:09.455Z,100420.22
2023-01-19T23:56:38.401Z,100430.75
2023-01-19T23:59:15.010Z,100425.06
